sensor_id;sensor_type;location;lat;lon;timestamp;pressure;altitude;pressure_sealevel;temperature;humidity
74334;BME280;62753;40.394;-80.022;2024-02-15T00:00:30;97921.41;;;6.63;24.62
74334;BME280;62753;40.394;-80.022;2024-02-15T00:02:56;97917.55;;;6.74;24.39
74334;BME280;62753;40.394;-80.022;2024-02-15T00:05:23;97915.87;;;7.01;23.90
74334;BME280;62753;40.394;-80.022;2024-02-15T00:07:47;97914.22;;;7.57;23.97
74334;BME280;62753;40.394;-80.022;2024-02-15T00:10:13;97908.45;;;6.18;24.80
74334;BME280;62753;40.394;-80.022;2024-02-15T00:12:38;97909.21;;;6.27;24.58
74334;BME280;62753;40.394;-80.022;2024-02-15T00:15:06;97910.88;;;6.66;24.80
74334;BME280;62753;40.394;-80.022;2024-02-15T00:17:29;97913.74;;;7.22;24.54
74334;BME280;62753;40.394;-80.022;2024-02-15T00:19:55;97916.48;;;6.97;24.35
74334;BME280;62753;40.394;-80.022;2024-02-15T00:22:22;97915.53;;;7.12;23.89
74334;BME280;62753;40.394;-80.022;2024-02-15T00:24:47;97915.76;;;7.23;23.99
74334;BME280;62753;40.394;-80.022;2024-02-15T00:27:13;97918.44;;;7.03;24.22
74334;BME280;62753;40.394;-80.022;2024-02-15T00:29:38;97917.38;;;6.39;24.85
74334;BME280;62753;40.394;-80.022;2024-02-15T00:32:05;97921.50;;;5.89;25.92
74334;BME280;62753;40.394;-80.022;2024-02-15T00:34:29;97919.36;;;5.55;26.18
74334;BME280;62753;40.394;-80.022;2024-02-15T00:36:55;97922.48;;;5.92;25.86
74334;BME280;62753;40.394;-80.022;2024-02-15T00:39:20;97922.56;;;6.05;25.00
74334;BME280;62753;40.394;-80.022;2024-02-15T00:41:46;97925.67;;;6.11;25.89
74334;BME280;62753;40.394;-80.022;2024-02-15T00:44:12;97928.86;;;5.76;25.83
74334;BME280;62753;40.394;-80.022;2024-02-15T00:46:38;97932.95;;;6.72;25.01
74334;BME280;62753;40.394;-80.022;2024-02-15T00:49:03;97933.56;;;6.04;25.46
74334;BME280;62753;40.394;-80.022;2024-02-15T00:51:28;97940.41;;;5.13;26.35
74334;BME280;62753;40.394;-80.022;2024-02-15T00:53:54;97940.33;;;6.68;25.11
74334;BME280;62753;40.394;-80.022;2024-02-15T00:56:21;97935.88;;;5.94;25.81
74334;BME280;62753;40.394;-80.022;2024-02-15T00:58:45;97935.39;;;6.64;25.01
74334;BME280;62753;40.394;-80.022;2024-02-15T01:01:13;97933.87;;;5.35;26.42
74334;BME280;62753;40.394;-80.022;2024-02-15T01:03:36;97936.52;;;6.70;25.19
74334;BME280;62753;40.394;-80.022;2024-02-15T01:06:03;97934.21;;;6.29;25.54
74334;BME280;62753;40.394;-80.022;2024-02-15T01:08:28;97932.66;;;5.64;25.60
74334;BME280;62753;40.394;-80.022;2024-02-15T01:10:53;97932.18;;;5.01;26.93
74334;BME280;62753;40.394;-80.022;2024-02-15T01:13:20;97924.86;;;5.90;25.91
74334;BME280;62753;40.394;-80.022;2024-02-15T01:15:44;97919.71;;;6.13;25.73
74334;BME280;62753;40.394;-80.022;2024-02-15T01:18:10;97921.66;;;5.81;26.22
74334;BME280;62753;40.394;-80.022;2024-02-15T01:20:35;97919.01;;;6.75;25.33
74334;BME280;62753;40.394;-80.022;2024-02-15T01:23:03;97921.71;;;5.33;26.42
74334;BME280;62753;40.394;-80.022;2024-02-15T01:25:28;97924.94;;;5.13;26.78
74334;BME280;62753;40.394;-80.022;2024-02-15T01:27:54;97926.99;;;5.51;26.50
74334;BME280;62753;40.394;-80.022;2024-02-15T01:30:20;97929.96;;;5.78;25.72
74334;BME280;62753;40.394;-80.022;2024-02-15T01:32:45;97935.91;;;6.25;25.71
74334;BME280;62753;40.394;-80.022;2024-02-15T01:35:10;97938.08;;;5.71;25.61
74334;BME280;62753;40.394;-80.022;2024-02-15T01:37:35;97939.68;;;5.99;25.88
74334;BME280;62753;40.394;-80.022;2024-02-15T01:40:05;97940.63;;;5.76;26.48
74334;BME280;62753;40.394;-80.022;2024-02-15T01:42:27;97940.81;;;4.81;26.90
74334;BME280;62753;40.394;-80.022;2024-02-15T01:44:53;97941.15;;;5.92;26.14
74334;BME280;62753;40.394;-80.022;2024-02-15T01:47:18;97941.98;;;5.80;26.67
74334;BME280;62753;40.394;-80.022;2024-02-15T01:49:43;97941.79;;;5.56;26.70
74334;BME280;62753;40.394;-80.022;2024-02-15T01:52:10;97938.92;;;5.70;26.11
74334;BME280;62753;40.394;-80.022;2024-02-15T01:54:35;97936.35;;;5.23;26.18
74334;BME280;62753;40.394;-80.022;2024-02-15T01:57:01;97934.77;;;6.20;25.65
74334;BME280;62753;40.394;-80.022;2024-02-15T01:59:29;97937.57;;;6.14;25.92
74334;BME280;62753;40.394;-80.022;2024-02-15T02:01:52;97941.28;;;5.64;26.23
74334;BME280;62753;40.394;-80.022;2024-02-15T02:04:17;97941.30;;;5.33;26.27
74334;BME280;62753;40.394;-80.022;2024-02-15T02:06:47;97935.04;;;5.71;25.97
74334;BME280;62753;40.394;-80.022;2024-02-15T02:09:15;97932.11;;;6.11;25.84
74334;BME280;62753;40.394;-80.022;2024-02-15T02:11:34;97934.59;;;5.89;26.36
74334;BME280;62753;40.394;-80.022;2024-02-15T02:14:02;97937.96;;;5.67;26.32
74334;BME280;62753;40.394;-80.022;2024-02-15T02:16:27;97941.26;;;6.85;25.08
74334;BME280;62753;40.394;-80.022;2024-02-15T02:18:51;97939.26;;;5.90;25.48
74334;BME280;62753;40.394;-80.022;2024-02-15T02:21:19;97940.36;;;5.35;26.03
74334;BME280;62753;40.394;-80.022;2024-02-15T02:23:46;97943.13;;;5.60;26.16
74334;BME280;62753;40.394;-80.022;2024-02-15T02:26:09;97944.35;;;5.65;26.22
74334;BME280;62753;40.394;-80.022;2024-02-15T02:28:34;97947.58;;;6.02;26.06
74334;BME280;62753;40.394;-80.022;2024-02-15T02:31:00;97945.91;;;4.34;27.26
74334;BME280;62753;40.394;-80.022;2024-02-15T02:33:28;97950.51;;;5.24;26.85
74334;BME280;62753;40.394;-80.022;2024-02-15T02:35:54;97950.22;;;4.85;26.73
74334;BME280;62753;40.394;-80.022;2024-02-15T02:38:18;97954.59;;;4.58;27.84
74334;BME280;62753;40.394;-80.022;2024-02-15T02:40:42;97957.27;;;4.40;26.95
74334;BME280;62753;40.394;-80.022;2024-02-15T02:43:11;97957.73;;;4.41;27.34
74334;BME280;62753;40.394;-80.022;2024-02-15T02:45:35;97957.31;;;4.75;26.72
74334;BME280;62753;40.394;-80.022;2024-02-15T02:48:01;97955.17;;;5.35;25.61
74334;BME280;62753;40.394;-80.022;2024-02-15T02:50:25;97960.37;;;5.03;26.62
74334;BME280;62753;40.394;-80.022;2024-02-15T02:52:52;97962.75;;;5.04;26.56
74334;BME280;62753;40.394;-80.022;2024-02-15T02:55:16;97968.95;;;4.65;26.92
74334;BME280;62753;40.394;-80.022;2024-02-15T02:57:42;97965.71;;;5.92;25.16
74334;BME280;62753;40.394;-80.022;2024-02-15T03:00:11;97967.49;;;5.68;25.99
74334;BME280;62753;40.394;-80.022;2024-02-15T03:02:35;97967.62;;;6.08;24.88
74334;BME280;62753;40.394;-80.022;2024-02-15T03:04:59;97966.43;;;6.09;25.58
74334;BME280;62753;40.394;-80.022;2024-02-15T03:07:25;97970.00;;;5.49;26.11
74334;BME280;62753;40.394;-80.022;2024-02-15T03:09:51;97974.03;;;5.15;27.45
74334;BME280;62753;40.394;-80.022;2024-02-15T03:12:19;97972.39;;;4.63;27.48
74334;BME280;62753;40.394;-80.022;2024-02-15T03:14:43;97972.43;;;4.71;27.23
74334;BME280;62753;40.394;-80.022;2024-02-15T03:17:07;97974.94;;;4.08;27.95
74334;BME280;62753;40.394;-80.022;2024-02-15T03:19:34;97975.42;;;4.85;26.66
74334;BME280;62753;40.394;-80.022;2024-02-15T03:21:59;97971.58;;;5.55;26.22
74334;BME280;62753;40.394;-80.022;2024-02-15T03:24:27;97972.67;;;4.64;26.83
74334;BME280;62753;40.394;-80.022;2024-02-15T03:26:51;97971.67;;;4.94;26.69
74334;BME280;62753;40.394;-80.022;2024-02-15T03:29:16;97972.75;;;3.01;28.01
74334;BME280;62753;40.394;-80.022;2024-02-15T03:31:45;97969.44;;;5.11;26.96
74334;BME280;62753;40.394;-80.022;2024-02-15T03:34:08;97966.98;;;5.20;25.99
74334;BME280;62753;40.394;-80.022;2024-02-15T03:36:32;97968.79;;;3.54;27.30
74334;BME280;62753;40.394;-80.022;2024-02-15T03:38:59;97971.67;;;3.74;27.78
74334;BME280;62753;40.394;-80.022;2024-02-15T03:41:28;97972.46;;;4.19;26.92
74334;BME280;62753;40.394;-80.022;2024-02-15T03:43:54;97972.52;;;3.46;27.98
74334;BME280;62753;40.394;-80.022;2024-02-15T03:46:15;97972.26;;;4.59;26.74
74334;BME280;62753;40.394;-80.022;2024-02-15T03:48:42;97970.36;;;5.20;26.00
74334;BME280;62753;40.394;-80.022;2024-02-15T03:51:06;97972.02;;;5.31;26.31
74334;BME280;62753;40.394;-80.022;2024-02-15T03:53:32;97973.44;;;7.08;24.50
74334;BME280;62753;40.394;-80.022;2024-02-15T03:55:59;97974.85;;;5.81;25.35
74334;BME280;62753;40.394;-80.022;2024-02-15T03:58:23;97970.10;;;5.68;25.67
74334;BME280;62753;40.394;-80.022;2024-02-15T04:00:49;97966.34;;;5.94;25.51
74334;BME280;62753;40.394;-80.022;2024-02-15T04:03:14;97969.26;;;5.43;24.90
74334;BME280;62753;40.394;-80.022;2024-02-15T04:05:40;97973.68;;;5.29;26.31
74334;BME280;62753;40.394;-80.022;2024-02-15T04:08:07;97976.88;;;4.90;26.76
74334;BME280;62753;40.394;-80.022;2024-02-15T04:10:31;97972.61;;;5.76;25.21
74334;BME280;62753;40.394;-80.022;2024-02-15T04:12:57;97971.87;;;7.15;23.98
74334;BME280;62753;40.394;-80.022;2024-02-15T04:15:22;97970.50;;;6.69;24.50
74334;BME280;62753;40.394;-80.022;2024-02-15T04:17:48;97968.89;;;4.52;27.28
74334;BME280;62753;40.394;-80.022;2024-02-15T04:20:14;97966.55;;;5.17;26.35
74334;BME280;62753;40.394;-80.022;2024-02-15T04:22:40;97959.64;;;5.44;25.53
74334;BME280;62753;40.394;-80.022;2024-02-15T04:25:07;97962.94;;;6.49;24.73
74334;BME280;62753;40.394;-80.022;2024-02-15T04:27:31;97962.07;;;6.11;25.43
74334;BME280;62753;40.394;-80.022;2024-02-15T04:29:57;97964.57;;;4.01;26.83
74334;BME280;62753;40.394;-80.022;2024-02-15T04:32:21;97962.29;;;6.30;24.63
74334;BME280;62753;40.394;-80.022;2024-02-15T04:34:47;97965.45;;;4.75;25.81
74334;BME280;62753;40.394;-80.022;2024-02-15T04:37:13;97958.63;;;4.91;25.61
74334;BME280;62753;40.394;-80.022;2024-02-15T04:39:40;97956.32;;;3.69;27.24
74334;BME280;62753;40.394;-80.022;2024-02-15T04:42:05;97959.75;;;4.39;26.86
74334;BME280;62753;40.394;-80.022;2024-02-15T04:44:33;97960.13;;;3.85;27.27
74334;BME280;62753;40.394;-80.022;2024-02-15T04:46:55;97958.21;;;4.30;26.80
74334;BME280;62753;40.394;-80.022;2024-02-15T04:49:21;97960.07;;;3.60;27.71
74334;BME280;62753;40.394;-80.022;2024-02-15T04:51:48;97956.16;;;3.49;27.85
74334;BME280;62753;40.394;-80.022;2024-02-15T04:54:12;97948.98;;;3.41;27.92
74334;BME280;62753;40.394;-80.022;2024-02-15T04:56:38;97949.27;;;4.30;26.59
74334;BME280;62753;40.394;-80.022;2024-02-15T04:59:05;97948.85;;;5.62;25.72
74334;BME280;62753;40.394;-80.022;2024-02-15T05:01:30;97947.70;;;4.78;26.35
74334;BME280;62753;40.394;-80.022;2024-02-15T05:03:57;97950.63;;;3.67;27.27
74334;BME280;62753;40.394;-80.022;2024-02-15T05:06:22;97954.08;;;5.23;25.49
74334;BME280;62753;40.394;-80.022;2024-02-15T05:08:48;97951.04;;;5.87;25.74
74334;BME280;62753;40.394;-80.022;2024-02-15T05:11:12;97951.38;;;5.96;25.12
74334;BME280;62753;40.394;-80.022;2024-02-15T05:13:37;97947.66;;;5.94;25.04
74334;BME280;62753;40.394;-80.022;2024-02-15T05:16:05;97941.67;;;6.06;25.05
74334;BME280;62753;40.394;-80.022;2024-02-15T05:18:29;97933.97;;;5.15;25.94
74334;BME280;62753;40.394;-80.022;2024-02-15T05:20:55;97929.57;;;5.96;25.39
74334;BME280;62753;40.394;-80.022;2024-02-15T05:23:23;97928.44;;;5.08;25.87
74334;BME280;62753;40.394;-80.022;2024-02-15T05:25:46;97929.55;;;5.56;25.80
74334;BME280;62753;40.394;-80.022;2024-02-15T05:28:11;97931.75;;;5.65;25.71
74334;BME280;62753;40.394;-80.022;2024-02-15T05:30:39;97927.72;;;5.82;25.63
74334;BME280;62753;40.394;-80.022;2024-02-15T05:33:03;97920.27;;;5.43;26.02
74334;BME280;62753;40.394;-80.022;2024-02-15T05:35:28;97915.03;;;5.60;25.72
74334;BME280;62753;40.394;-80.022;2024-02-15T05:37:54;97911.95;;;6.00;25.48
74334;BME280;62753;40.394;-80.022;2024-02-15T05:40:20;97913.17;;;5.14;25.56
74334;BME280;62753;40.394;-80.022;2024-02-15T05:42:45;97911.99;;;5.68;26.24
74334;BME280;62753;40.394;-80.022;2024-02-15T05:47:37;97907.17;;;4.95;26.18
74334;BME280;62753;40.394;-80.022;2024-02-15T05:50:03;97909.24;;;4.74;27.01
74334;BME280;62753;40.394;-80.022;2024-02-15T05:52:29;97912.83;;;5.32;26.26
74334;BME280;62753;40.394;-80.022;2024-02-15T05:54:55;97915.93;;;5.15;26.17
74334;BME280;62753;40.394;-80.022;2024-02-15T05:57:19;97915.68;;;5.29;26.20
74334;BME280;62753;40.394;-80.022;2024-02-15T05:59:45;97917.77;;;5.37;26.65
74334;BME280;62753;40.394;-80.022;2024-02-15T06:02:12;97914.72;;;4.77;26.42
74334;BME280;62753;40.394;-80.022;2024-02-15T06:04:41;97914.11;;;4.33;27.44
74334;BME280;62753;40.394;-80.022;2024-02-15T06:07:02;97908.52;;;4.36;27.50
74334;BME280;62753;40.394;-80.022;2024-02-15T06:09:28;97911.23;;;5.21;26.82
74334;BME280;62753;40.394;-80.022;2024-02-15T06:11:55;97917.59;;;3.70;28.03
74334;BME280;62753;40.394;-80.022;2024-02-15T06:14:19;97918.53;;;4.19;27.79
74334;BME280;62753;40.394;-80.022;2024-02-15T06:16:44;97918.42;;;4.92;26.92
74334;BME280;62753;40.394;-80.022;2024-02-15T06:19:10;97918.79;;;5.08;26.85
74334;BME280;62753;40.394;-80.022;2024-02-15T06:21:38;97915.88;;;5.08;26.17
74334;BME280;62753;40.394;-80.022;2024-02-15T06:24:06;97915.47;;;4.74;26.93
74334;BME280;62753;40.394;-80.022;2024-02-15T06:26:30;97910.99;;;5.30;26.07
74334;BME280;62753;40.394;-80.022;2024-02-15T06:28:53;97907.50;;;4.75;26.58
74334;BME280;62753;40.394;-80.022;2024-02-15T06:31:21;97906.89;;;4.84;26.51
74334;BME280;62753;40.394;-80.022;2024-02-15T06:33:44;97905.99;;;4.77;26.70
74334;BME280;62753;40.394;-80.022;2024-02-15T06:36:09;97906.82;;;5.04;26.54
74334;BME280;62753;40.394;-80.022;2024-02-15T06:38:37;97903.66;;;5.08;27.31
74334;BME280;62753;40.394;-80.022;2024-02-15T06:41:01;97908.26;;;4.11;28.14
74334;BME280;62753;40.394;-80.022;2024-02-15T06:43:29;97907.34;;;3.85;28.85
74334;BME280;62753;40.394;-80.022;2024-02-15T06:45:52;97905.84;;;4.76;27.22
74334;BME280;62753;40.394;-80.022;2024-02-15T06:48:18;97903.59;;;5.71;26.50
74334;BME280;62753;40.394;-80.022;2024-02-15T06:50:48;97898.36;;;4.09;27.04
74334;BME280;62753;40.394;-80.022;2024-02-15T06:53:10;97900.37;;;3.86;28.06
74334;BME280;62753;40.394;-80.022;2024-02-15T06:55:37;97902.24;;;4.41;27.41
74334;BME280;62753;40.394;-80.022;2024-02-15T06:58:03;97904.72;;;4.01;28.12
74334;BME280;62753;40.394;-80.022;2024-02-15T07:00:28;97910.24;;;3.56;28.44
74334;BME280;62753;40.394;-80.022;2024-02-15T07:02:54;97908.21;;;3.65;28.41
74334;BME280;62753;40.394;-80.022;2024-02-15T07:05:18;97913.57;;;3.63;28.49
74334;BME280;62753;40.394;-80.022;2024-02-15T07:07:44;97922.67;;;3.04;29.59
74334;BME280;62753;40.394;-80.022;2024-02-15T07:10:10;97924.38;;;3.63;29.22
74334;BME280;62753;40.394;-80.022;2024-02-15T07:12:36;97925.79;;;3.75;29.20
74334;BME280;62753;40.394;-80.022;2024-02-15T07:15:04;97929.42;;;4.37;28.81
74334;BME280;62753;40.394;-80.022;2024-02-15T07:17:27;97930.85;;;4.48;27.89
74334;BME280;62753;40.394;-80.022;2024-02-15T07:19:53;97932.25;;;4.11;28.21
74334;BME280;62753;40.394;-80.022;2024-02-15T07:22:18;97929.64;;;3.89;29.12
74334;BME280;62753;40.394;-80.022;2024-02-15T07:24:47;97926.15;;;4.07;29.27
74334;BME280;62753;40.394;-80.022;2024-02-15T07:27:09;97926.33;;;3.80;29.98
74334;BME280;62753;40.394;-80.022;2024-02-15T07:29:35;97922.60;;;3.70;30.04
74334;BME280;62753;40.394;-80.022;2024-02-15T07:32:01;97929.87;;;3.45;30.51
74334;BME280;62753;40.394;-80.022;2024-02-15T07:34:27;97932.16;;;2.89;30.94
74334;BME280;62753;40.394;-80.022;2024-02-15T07:36:54;97931.70;;;3.09;30.47
74334;BME280;62753;40.394;-80.022;2024-02-15T07:39:17;97928.90;;;2.66;31.65
74334;BME280;62753;40.394;-80.022;2024-02-15T07:41:45;97929.60;;;3.34;30.03
74334;BME280;62753;40.394;-80.022;2024-02-15T07:44:11;97921.30;;;3.40;29.82
74334;BME280;62753;40.394;-80.022;2024-02-15T07:46:33;97922.50;;;3.13;29.64
74334;BME280;62753;40.394;-80.022;2024-02-15T07:49:01;97925.25;;;3.30;29.67
74334;BME280;62753;40.394;-80.022;2024-02-15T07:51:24;97917.95;;;2.07;31.18
74334;BME280;62753;40.394;-80.022;2024-02-15T07:53:52;97909.47;;;2.71;31.48
74334;BME280;62753;40.394;-80.022;2024-02-15T07:56:17;97899.94;;;2.44;31.45
74334;BME280;62753;40.394;-80.022;2024-02-15T07:58:42;97893.84;;;2.40;31.85
74334;BME280;62753;40.394;-80.022;2024-02-15T08:01:13;97892.47;;;2.40;31.50
74334;BME280;62753;40.394;-80.022;2024-02-15T08:03:33;97892.68;;;2.46;31.99
74334;BME280;62753;40.394;-80.022;2024-02-15T08:06:00;97883.35;;;2.08;32.02
74334;BME280;62753;40.394;-80.022;2024-02-15T08:08:24;97888.18;;;1.49;33.41
74334;BME280;62753;40.394;-80.022;2024-02-15T08:10:50;97893.00;;;1.88;32.56
74334;BME280;62753;40.394;-80.022;2024-02-15T08:13:17;97890.74;;;1.96;32.37
74334;BME280;62753;40.394;-80.022;2024-02-15T08:15:43;97887.15;;;1.88;32.16
74334;BME280;62753;40.394;-80.022;2024-02-15T08:18:07;97880.84;;;2.21;32.36
74334;BME280;62753;40.394;-80.022;2024-02-15T08:20:32;97873.72;;;1.37;33.19
74334;BME280;62753;40.394;-80.022;2024-02-15T08:23:00;97876.45;;;0.92;34.16
74334;BME280;62753;40.394;-80.022;2024-02-15T08:25:24;97872.92;;;1.42;33.11
74334;BME280;62753;40.394;-80.022;2024-02-15T08:27:50;97868.96;;;2.05;32.26
74334;BME280;62753;40.394;-80.022;2024-02-15T08:30:17;97859.27;;;1.31;33.13
74334;BME280;62753;40.394;-80.022;2024-02-15T08:32:41;97855.21;;;0.86;34.53
74334;BME280;62753;40.394;-80.022;2024-02-15T08:35:08;97854.16;;;0.75;34.53
74334;BME280;62753;40.394;-80.022;2024-02-15T08:37:31;97854.23;;;0.97;34.04
74334;BME280;62753;40.394;-80.022;2024-02-15T08:39:59;97845.30;;;2.04;33.06
74334;BME280;62753;40.394;-80.022;2024-02-15T08:42:23;97845.74;;;1.19;33.35
74334;BME280;62753;40.394;-80.022;2024-02-15T08:44:50;97846.82;;;1.07;33.03
74334;BME280;62753;40.394;-80.022;2024-02-15T08:47:16;97838.93;;;1.04;33.74
74334;BME280;62753;40.394;-80.022;2024-02-15T08:49:43;97833.36;;;1.24;33.43
74334;BME280;62753;40.394;-80.022;2024-02-15T08:52:09;97830.16;;;0.90;34.06
74334;BME280;62753;40.394;-80.022;2024-02-15T08:54:33;97831.12;;;0.92;34.33
74334;BME280;62753;40.394;-80.022;2024-02-15T08:56:57;97824.07;;;1.46;33.51
74334;BME280;62753;40.394;-80.022;2024-02-15T08:59:23;97814.26;;;1.01;34.67
74334;BME280;62753;40.394;-80.022;2024-02-15T09:01:50;97801.39;;;0.68;35.22
74334;BME280;62753;40.394;-80.022;2024-02-15T09:04:14;97795.66;;;1.26;34.17
74334;BME280;62753;40.394;-80.022;2024-02-15T09:06:39;97790.01;;;0.91;34.34
74334;BME280;62753;40.394;-80.022;2024-02-15T09:09:05;97791.66;;;-0.15;36.50
74334;BME280;62753;40.394;-80.022;2024-02-15T09:11:30;97790.90;;;0.15;36.36
74334;BME280;62753;40.394;-80.022;2024-02-15T09:13:56;97784.56;;;0.30;35.98
74334;BME280;62753;40.394;-80.022;2024-02-15T09:16:23;97783.17;;;-0.23;37.38
74334;BME280;62753;40.394;-80.022;2024-02-15T09:18:49;97776.67;;;0.62;36.02
74334;BME280;62753;40.394;-80.022;2024-02-15T09:21:15;97772.56;;;0.88;35.28
74334;BME280;62753;40.394;-80.022;2024-02-15T09:23:40;97770.63;;;0.77;35.22
74334;BME280;62753;40.394;-80.022;2024-02-15T09:26:04;97771.57;;;0.66;35.55
74334;BME280;62753;40.394;-80.022;2024-02-15T09:28:31;97768.04;;;0.55;35.64
74334;BME280;62753;40.394;-80.022;2024-02-15T09:30:55;97763.94;;;0.57;35.86
74334;BME280;62753;40.394;-80.022;2024-02-15T09:33:22;97755.78;;;0.54;35.87
74334;BME280;62753;40.394;-80.022;2024-02-15T09:35:46;97744.48;;;0.96;35.73
74334;BME280;62753;40.394;-80.022;2024-02-15T09:38:11;97734.15;;;0.13;36.09
74334;BME280;62753;40.394;-80.022;2024-02-15T09:40:37;97729.70;;;0.10;36.13
74334;BME280;62753;40.394;-80.022;2024-02-15T09:43:04;97728.93;;;0.48;36.06
74334;BME280;62753;40.394;-80.022;2024-02-15T09:45:29;97727.36;;;-0.02;36.60
74334;BME280;62753;40.394;-80.022;2024-02-15T09:47:56;97729.41;;;0.34;36.75
74334;BME280;62753;40.394;-80.022;2024-02-15T09:50:23;97728.55;;;0.50;35.57
74334;BME280;62753;40.394;-80.022;2024-02-15T09:52:50;97722.78;;;0.04;35.42
74334;BME280;62753;40.394;-80.022;2024-02-15T09:55:13;97715.47;;;0.44;35.50
74334;BME280;62753;40.394;-80.022;2024-02-15T09:57:36;97705.42;;;0.07;37.02
74334;BME280;62753;40.394;-80.022;2024-02-15T10:00:03;97701.81;;;-0.32;37.28
74334;BME280;62753;40.394;-80.022;2024-02-15T10:02:29;97703.34;;;-0.81;38.25
74334;BME280;62753;40.394;-80.022;2024-02-15T10:04:54;97707.48;;;-0.59;38.76
74334;BME280;62753;40.394;-80.022;2024-02-15T10:07:19;97705.60;;;-0.54;38.81
74334;BME280;62753;40.394;-80.022;2024-02-15T10:09:46;97700.16;;;-0.70;39.22
74334;BME280;62753;40.394;-80.022;2024-02-15T10:12:10;97697.53;;;-1.25;40.35
74334;BME280;62753;40.394;-80.022;2024-02-15T10:14:38;97689.28;;;-1.17;40.72
74334;BME280;62753;40.394;-80.022;2024-02-15T10:17:08;97680.61;;;-0.93;40.46
74334;BME280;62753;40.394;-80.022;2024-02-15T10:19:26;97673.54;;;-0.53;40.13
74334;BME280;62753;40.394;-80.022;2024-02-15T10:21:54;97665.19;;;-0.85;40.04
74334;BME280;62753;40.394;-80.022;2024-02-15T10:24:18;97672.55;;;0.07;38.12
74334;BME280;62753;40.394;-80.022;2024-02-15T10:26:43;97683.73;;;0.18;37.25
74334;BME280;62753;40.394;-80.022;2024-02-15T10:29:10;97684.58;;;1.00;36.47
74334;BME280;62753;40.394;-80.022;2024-02-15T10:31:34;97682.92;;;0.83;35.71
74334;BME280;62753;40.394;-80.022;2024-02-15T10:34:04;97668.43;;;0.17;36.85
74334;BME280;62753;40.394;-80.022;2024-02-15T10:36:25;97658.90;;;0.45;36.98
74334;BME280;62753;40.394;-80.022;2024-02-15T10:38:50;97649.99;;;0.76;36.45
74334;BME280;62753;40.394;-80.022;2024-02-15T10:41:16;97652.17;;;0.56;36.70
74334;BME280;62753;40.394;-80.022;2024-02-15T10:43:42;97661.12;;;1.07;36.18
74334;BME280;62753;40.394;-80.022;2024-02-15T10:46:08;97665.20;;;0.52;36.20
74334;BME280;62753;40.394;-80.022;2024-02-15T10:48:34;97667.57;;;0.71;36.12
74334;BME280;62753;40.394;-80.022;2024-02-15T10:51:03;97669.79;;;1.26;35.68
74334;BME280;62753;40.394;-80.022;2024-02-15T10:53:28;97668.24;;;1.17;35.44
74334;BME280;62753;40.394;-80.022;2024-02-15T10:55:56;97666.73;;;0.78;35.85
74334;BME280;62753;40.394;-80.022;2024-02-15T10:58:19;97670.40;;;0.74;35.98
74334;BME280;62753;40.394;-80.022;2024-02-15T11:00:41;97668.26;;;0.27;36.28
74334;BME280;62753;40.394;-80.022;2024-02-15T11:03:05;97667.89;;;0.83;36.79
74334;BME280;62753;40.394;-80.022;2024-02-15T11:05:33;97666.80;;;1.16;36.90
74334;BME280;62753;40.394;-80.022;2024-02-15T11:07:57;97662.94;;;0.74;36.57
74334;BME280;62753;40.394;-80.022;2024-02-15T11:10:21;97662.07;;;0.43;36.99
74334;BME280;62753;40.394;-80.022;2024-02-15T11:12:46;97664.79;;;0.37;36.52
74334;BME280;62753;40.394;-80.022;2024-02-15T11:15:11;97659.10;;;0.82;36.34
74334;BME280;62753;40.394;-80.022;2024-02-15T11:17:48;97651.90;;;0.94;36.47
74334;BME280;62753;40.394;-80.022;2024-02-15T11:20:03;97654.42;;;0.72;36.40
74334;BME280;62753;40.394;-80.022;2024-02-15T11:22:29;97654.21;;;0.86;36.15
74334;BME280;62753;40.394;-80.022;2024-02-15T11:24:54;97655.74;;;1.56;35.19
74334;BME280;62753;40.394;-80.022;2024-02-15T11:27:25;97655.57;;;1.27;35.28
74334;BME280;62753;40.394;-80.022;2024-02-15T11:29:49;97651.74;;;1.48;34.81
74334;BME280;62753;40.394;-80.022;2024-02-15T11:32:09;97642.82;;;1.57;34.94
74334;BME280;62753;40.394;-80.022;2024-02-15T11:34:43;97626.66;;;0.91;35.72
74334;BME280;62753;40.394;-80.022;2024-02-15T11:37:00;97620.68;;;0.76;36.68
74334;BME280;62753;40.394;-80.022;2024-02-15T11:39:40;97624.30;;;0.73;36.13
74334;BME280;62753;40.394;-80.022;2024-02-15T11:44:17;97616.78;;;0.61;36.41
74334;BME280;62753;40.394;-80.022;2024-02-15T11:46:41;97611.74;;;0.76;36.09
74334;BME280;62753;40.394;-80.022;2024-02-15T11:49:14;97616.47;;;0.97;36.26
74334;BME280;62753;40.394;-80.022;2024-02-15T11:51:34;97622.06;;;0.98;35.76
74334;BME280;62753;40.394;-80.022;2024-02-15T11:54:03;97625.56;;;1.25;35.46
74334;BME280;62753;40.394;-80.022;2024-02-15T11:56:24;97623.61;;;1.14;35.10
74334;BME280;62753;40.394;-80.022;2024-02-15T11:59:03;97609.13;;;0.48;37.36
74334;BME280;62753;40.394;-80.022;2024-02-15T12:01:15;97593.66;;;0.39;37.96
74334;BME280;62753;40.394;-80.022;2024-02-15T12:03:42;97596.72;;;1.04;36.67
74334;BME280;62753;40.394;-80.022;2024-02-15T12:06:08;97599.55;;;1.71;35.55
74334;BME280;62753;40.394;-80.022;2024-02-15T12:08:35;97591.99;;;2.41;34.41
74334;BME280;62753;40.394;-80.022;2024-02-15T12:10:58;97584.36;;;2.15;33.99
74334;BME280;62753;40.394;-80.022;2024-02-15T12:13:23;97579.97;;;2.26;33.73
74334;BME280;62753;40.394;-80.022;2024-02-15T12:15:57;97578.51;;;1.83;33.61
74334;BME280;62753;40.394;-80.022;2024-02-15T12:18:15;97568.50;;;2.25;32.98
74334;BME280;62753;40.394;-80.022;2024-02-15T12:20:47;97572.75;;;2.33;33.40
74334;BME280;62753;40.394;-80.022;2024-02-15T12:23:05;97577.68;;;2.10;33.30
74334;BME280;62753;40.394;-80.022;2024-02-15T12:25:31;97574.23;;;1.92;33.42
74334;BME280;62753;40.394;-80.022;2024-02-15T12:27:58;97575.52;;;2.09;33.57
74334;BME280;62753;40.394;-80.022;2024-02-15T12:30:22;97567.77;;;1.99;33.06
74334;BME280;62753;40.394;-80.022;2024-02-15T12:32:48;97568.02;;;2.77;32.96
74334;BME280;62753;40.394;-80.022;2024-02-15T12:35:13;97565.99;;;2.64;31.86
74334;BME280;62753;40.394;-80.022;2024-02-15T12:37:39;97571.90;;;1.98;33.34
74334;BME280;62753;40.394;-80.022;2024-02-15T12:40:11;97582.72;;;0.99;34.55
74334;BME280;62753;40.394;-80.022;2024-02-15T12:42:30;97586.13;;;1.32;34.54
74334;BME280;62753;40.394;-80.022;2024-02-15T12:44:56;97581.28;;;2.16;33.93